sensor_id;sensor_type;location;lat;lon;timestamp;temperature;humidity
10873;DHT22;34586;53.616;10.032;2023-01-29T00:00:40;3.70;99.90
10873;DHT22;34586;53.616;10.032;2023-01-29T00:03:06;3.70;99.90
10873;DHT22;34586;53.616;10.032;2023-01-29T00:05:33;3.70;99.90
10873;DHT22;34586;53.616;10.032;2023-01-29T00:07:59;3.70;99.90
10873;DHT22;34586;53.616;10.032;2023-01-29T00:10:26;3.70;99.90
10873;DHT22;34586;53.616;10.032;2023-01-29T00:12:51;3.70;99.90
10873;DHT22;34586;53.616;10.032;2023-01-29T00:15:17;3.80;99.90
10873;DHT22;34586;53.616;10.032;2023-01-29T00:17:43;4.40;99.90
10873;DHT22;34586;53.616;10.032;2023-01-29T00:20:10;3.70;99.90
10873;DHT22;34586;53.616;10.032;2023-01-29T00:22:35;3.70;99.90
10873;DHT22;34586;53.616;10.032;2023-01-29T00:25:01;3.70;99.90
10873;DHT22;34586;53.616;10.032;2023-01-29T00:27:26;3.70;99.90
10873;DHT22;34586;53.616;10.032;2023-01-29T00:29:52;3.70;99.90
10873;DHT22;34586;53.616;10.032;2023-01-29T00:32:36;3.70;99.90
10873;DHT22;34586;53.616;10.032;2023-01-29T00:35:02;3.70;99.90
10873;DHT22;34586;53.616;10.032;2023-01-29T00:37:28;3.70;99.90
10873;DHT22;34586;53.616;10.032;2023-01-29T00:39:54;3.70;99.90
10873;DHT22;34586;53.616;10.032;2023-01-29T00:42:19;3.70;99.90
10873;DHT22;34586;53.616;10.032;2023-01-29T00:45:04;3.70;99.90
10873;DHT22;34586;53.616;10.032;2023-01-29T00:47:29;3.70;99.90
10873;DHT22;34586;53.616;10.032;2023-01-29T00:49:55;3.70;99.90
10873;DHT22;34586;53.616;10.032;2023-01-29T00:52:22;3.70;99.90
10873;DHT22;34586;53.616;10.032;2023-01-29T00:54:59;3.70;99.90
10873;DHT22;34586;53.616;10.032;2023-01-29T00:57:27;3.80;99.90
10873;DHT22;34586;53.616;10.032;2023-01-29T00:59:53;3.70;99.90
10873;DHT22;34586;53.616;10.032;2023-01-29T01:02:19;3.70;99.90
10873;DHT22;34586;53.616;10.032;2023-01-29T01:05:05;3.80;99.90
10873;DHT22;34586;53.616;10.032;2023-01-29T01:07:32;3.80;99.90
10873;DHT22;34586;53.616;10.032;2023-01-29T01:09:58;3.80;99.90
10873;DHT22;34586;53.616;10.032;2023-01-29T01:12:42;3.80;99.90
10873;DHT22;34586;53.616;10.032;2023-01-29T01:15:08;3.80;99.90
10873;DHT22;34586;53.616;10.032;2023-01-29T01:17:33;3.80;99.90
10873;DHT22;34586;53.616;10.032;2023-01-29T01:20:00;3.80;99.90
10873;DHT22;34586;53.616;10.032;2023-01-29T01:22:25;3.90;99.90
10873;DHT22;34586;53.616;10.032;2023-01-29T01:24:51;3.80;99.90
10873;DHT22;34586;53.616;10.032;2023-01-29T01:27:17;3.80;99.90
10873;DHT22;34586;53.616;10.032;2023-01-29T01:29:44;3.80;99.90
10873;DHT22;34586;53.616;10.032;2023-01-29T01:32:11;3.80;99.90
10873;DHT22;34586;53.616;10.032;2023-01-29T01:34:36;3.90;99.90
10873;DHT22;34586;53.616;10.032;2023-01-29T01:37:02;3.90;99.90
10873;DHT22;34586;53.616;10.032;2023-01-29T01:39:28;4.00;99.90
10873;DHT22;34586;53.616;10.032;2023-01-29T01:41:54;4.00;99.90
10873;DHT22;34586;53.616;10.032;2023-01-29T01:44:51;4.00;99.90
10873;DHT22;34586;53.616;10.032;2023-01-29T01:47:42;3.90;99.90
10873;DHT22;34586;53.616;10.032;2023-01-29T01:50:16;4.00;99.90
10873;DHT22;34586;53.616;10.032;2023-01-29T01:52:47;4.00;99.90
10873;DHT22;34586;53.616;10.032;2023-01-29T01:55:16;4.00;99.90
10873;DHT22;34586;53.616;10.032;2023-01-29T01:57:46;4.00;99.90
10873;DHT22;34586;53.616;10.032;2023-01-29T02:00:15;4.00;99.90
10873;DHT22;34586;53.616;10.032;2023-01-29T02:02:44;4.10;99.90
10873;DHT22;34586;53.616;10.032;2023-01-29T02:05:31;4.00;99.90
10873;DHT22;34586;53.616;10.032;2023-01-29T02:08:33;4.00;99.90
10873;DHT22;34586;53.616;10.032;2023-01-29T02:11:19;4.00;99.90
10873;DHT22;34586;53.616;10.032;2023-01-29T02:13:45;4.00;99.90
10873;DHT22;34586;53.616;10.032;2023-01-29T02:16:10;4.00;99.90
10873;DHT22;34586;53.616;10.032;2023-01-29T02:18:36;4.10;99.90
10873;DHT22;34586;53.616;10.032;2023-01-29T02:21:42;4.00;99.90
10873;DHT22;34586;53.616;10.032;2023-01-29T02:27:12;4.00;99.90
10873;DHT22;34586;53.616;10.032;2023-01-29T02:33:01;4.10;99.90
10873;DHT22;34586;53.616;10.032;2023-01-29T02:35:36;4.10;99.90
10873;DHT22;34586;53.616;10.032;2023-01-29T02:38:17;4.10;99.90
10873;DHT22;34586;53.616;10.032;2023-01-29T02:46:28;4.00;99.90
10873;DHT22;34586;53.616;10.032;2023-01-29T02:49:17;4.10;99.90
10873;DHT22;34586;53.616;10.032;2023-01-29T02:51:55;4.10;99.90
10873;DHT22;34586;53.616;10.032;2023-01-29T02:56:57;4.10;99.90
10873;DHT22;34586;53.616;10.032;2023-01-29T03:00:12;4.10;99.90
10873;DHT22;34586;53.616;10.032;2023-01-29T03:02:20;4.10;99.90
10873;DHT22;34586;53.616;10.032;2023-01-29T03:04:53;4.20;99.90
10873;DHT22;34586;53.616;10.032;2023-01-29T03:07:26;4.20;99.90
10873;DHT22;34586;53.616;10.032;2023-01-29T03:10:25;4.20;99.90
10873;DHT22;34586;53.616;10.032;2023-01-29T03:13:01;4.20;99.90
10873;DHT22;34586;53.616;10.032;2023-01-29T03:15:31;4.20;99.90
10873;DHT22;34586;53.616;10.032;2023-01-29T03:18:11;4.10;99.90
10873;DHT22;34586;53.616;10.032;2023-01-29T03:20:41;4.20;99.90
10873;DHT22;34586;53.616;10.032;2023-01-29T03:23:20;4.10;99.90
10873;DHT22;34586;53.616;10.032;2023-01-29T03:25:50;4.10;99.90
10873;DHT22;34586;53.616;10.032;2023-01-29T03:28:38;4.10;99.90
10873;DHT22;34586;53.616;10.032;2023-01-29T03:31:25;4.10;99.90
10873;DHT22;34586;53.616;10.032;2023-01-29T03:34:16;4.20;99.90
10873;DHT22;34586;53.616;10.032;2023-01-29T03:37:00;4.20;99.90
10873;DHT22;34586;53.616;10.032;2023-01-29T03:39:28;4.20;99.90
10873;DHT22;34586;53.616;10.032;2023-01-29T03:47:42;4.20;99.90
10873;DHT22;34586;53.616;10.032;2023-01-29T03:50:13;4.40;99.90
10873;DHT22;34586;53.616;10.032;2023-01-29T03:52:46;4.10;99.90
10873;DHT22;34586;53.616;10.032;2023-01-29T03:55:19;4.10;99.90
10873;DHT22;34586;53.616;10.032;2023-01-29T04:00:13;4.10;99.90
10873;DHT22;34586;53.616;10.032;2023-01-29T04:02:54;4.10;99.90
10873;DHT22;34586;53.616;10.032;2023-01-29T04:05:24;4.10;99.90
10873;DHT22;34586;53.616;10.032;2023-01-29T04:08:00;4.10;99.90
10873;DHT22;34586;53.616;10.032;2023-01-29T04:10:26;4.10;99.90
10873;DHT22;34586;53.616;10.032;2023-01-29T04:13:00;4.10;99.90
10873;DHT22;34586;53.616;10.032;2023-01-29T04:15:30;4.10;99.90
10873;DHT22;34586;53.616;10.032;2023-01-29T04:17:58;4.10;99.90
10873;DHT22;34586;53.616;10.032;2023-01-29T04:20:24;4.10;99.90
10873;DHT22;34586;53.616;10.032;2023-01-29T04:22:50;4.10;99.90
10873;DHT22;34586;53.616;10.032;2023-01-29T04:25:20;4.10;99.90
10873;DHT22;34586;53.616;10.032;2023-01-29T04:31:04;4.00;99.90
10873;DHT22;34586;53.616;10.032;2023-01-29T04:38:46;4.00;99.90
10873;DHT22;34586;53.616;10.032;2023-01-29T04:41:21;4.00;99.90
10873;DHT22;34586;53.616;10.032;2023-01-29T04:47:02;4.00;99.90
10873;DHT22;34586;53.616;10.032;2023-01-29T04:50:12;4.00;99.90
10873;DHT22;34586;53.616;10.032;2023-01-29T04:52:59;4.00;99.90
10873;DHT22;34586;53.616;10.032;2023-01-29T04:55:42;4.00;99.90
10873;DHT22;34586;53.616;10.032;2023-01-29T05:00:42;4.00;99.90
10873;DHT22;34586;53.616;10.032;2023-01-29T05:03:12;4.00;99.90
10873;DHT22;34586;53.616;10.032;2023-01-29T05:05:44;4.00;99.90
10873;DHT22;34586;53.616;10.032;2023-01-29T05:08:12;4.00;99.90
10873;DHT22;34586;53.616;10.032;2023-01-29T05:10:40;4.00;99.90
10873;DHT22;34586;53.616;10.032;2023-01-29T05:13:10;3.90;99.90
10873;DHT22;34586;53.616;10.032;2023-01-29T05:15:48;3.90;99.90
10873;DHT22;34586;53.616;10.032;2023-01-29T05:18:16;3.90;99.90
10873;DHT22;34586;53.616;10.032;2023-01-29T05:20:42;3.80;99.90
10873;DHT22;34586;53.616;10.032;2023-01-29T05:23:19;3.80;99.90
10873;DHT22;34586;53.616;10.032;2023-01-29T05:25:46;3.80;99.90
10873;DHT22;34586;53.616;10.032;2023-01-29T05:28:12;3.80;99.90
10873;DHT22;34586;53.616;10.032;2023-01-29T05:30:46;3.80;99.90
10873;DHT22;34586;53.616;10.032;2023-01-29T05:35:48;3.80;99.90
10873;DHT22;34586;53.616;10.032;2023-01-29T05:38:15;3.80;99.90
10873;DHT22;34586;53.616;10.032;2023-01-29T05:40:41;3.80;99.90
10873;DHT22;34586;53.616;10.032;2023-01-29T05:43:17;3.80;99.90
10873;DHT22;34586;53.616;10.032;2023-01-29T05:45:55;3.80;99.90
10873;DHT22;34586;53.616;10.032;2023-01-29T05:48:21;3.70;99.90
10873;DHT22;34586;53.616;10.032;2023-01-29T05:50:47;3.70;99.90
10873;DHT22;34586;53.616;10.032;2023-01-29T05:53:12;3.80;99.90
10873;DHT22;34586;53.616;10.032;2023-01-29T05:55:38;3.80;99.90
10873;DHT22;34586;53.616;10.032;2023-01-29T05:58:04;3.70;99.90
10873;DHT22;34586;53.616;10.032;2023-01-29T06:00:30;3.70;99.90
10873;DHT22;34586;53.616;10.032;2023-01-29T06:02:57;3.80;99.90
10873;DHT22;34586;53.616;10.032;2023-01-29T06:05:23;3.70;99.90
10873;DHT22;34586;53.616;10.032;2023-01-29T06:07:48;3.70;99.90
10873;DHT22;34586;53.616;10.032;2023-01-29T06:10:16;3.70;99.90
10873;DHT22;34586;53.616;10.032;2023-01-29T06:12:42;3.70;99.90
10873;DHT22;34586;53.616;10.032;2023-01-29T06:15:08;3.70;99.90
10873;DHT22;34586;53.616;10.032;2023-01-29T06:17:35;3.80;99.90
10873;DHT22;34586;53.616;10.032;2023-01-29T06:20:01;3.70;99.90
10873;DHT22;34586;53.616;10.032;2023-01-29T06:22:26;3.80;99.90
10873;DHT22;34586;53.616;10.032;2023-01-29T06:24:52;3.80;99.90
10873;DHT22;34586;53.616;10.032;2023-01-29T06:27:17;3.70;99.90
10873;DHT22;34586;53.616;10.032;2023-01-29T06:29:43;3.80;99.90
10873;DHT22;34586;53.616;10.032;2023-01-29T06:32:09;3.80;99.90
10873;DHT22;34586;53.616;10.032;2023-01-29T06:34:34;3.80;99.90
10873;DHT22;34586;53.616;10.032;2023-01-29T06:37:00;3.80;99.90
10873;DHT22;34586;53.616;10.032;2023-01-29T06:39:25;3.90;99.90
10873;DHT22;34586;53.616;10.032;2023-01-29T06:41:51;3.90;99.90
10873;DHT22;34586;53.616;10.032;2023-01-29T06:44:17;3.80;99.90
10873;DHT22;34586;53.616;10.032;2023-01-29T06:46:42;3.80;99.90
10873;DHT22;34586;53.616;10.032;2023-01-29T06:49:08;3.80;99.90
10873;DHT22;34586;53.616;10.032;2023-01-29T06:51:33;3.80;99.90
10873;DHT22;34586;53.616;10.032;2023-01-29T06:54:00;3.90;99.90
10873;DHT22;34586;53.616;10.032;2023-01-29T06:56:26;3.90;99.90
10873;DHT22;34586;53.616;10.032;2023-01-29T06:58:51;3.90;99.90
10873;DHT22;34586;53.616;10.032;2023-01-29T07:01:17;3.90;99.90
10873;DHT22;34586;53.616;10.032;2023-01-29T07:03:42;5.20;99.90
10873;DHT22;34586;53.616;10.032;2023-01-29T07:06:09;3.90;99.90
10873;DHT22;34586;53.616;10.032;2023-01-29T07:08:38;3.80;99.90
10873;DHT22;34586;53.616;10.032;2023-01-29T07:11:05;3.90;99.90
10873;DHT22;34586;53.616;10.032;2023-01-29T07:13:31;3.90;99.90
10873;DHT22;34586;53.616;10.032;2023-01-29T07:16:01;3.90;99.90
10873;DHT22;34586;53.616;10.032;2023-01-29T07:18:27;3.90;99.90
10873;DHT22;34586;53.616;10.032;2023-01-29T07:20:53;3.90;99.90
10873;DHT22;34586;53.616;10.032;2023-01-29T07:23:19;3.90;99.90
10873;DHT22;34586;53.616;10.032;2023-01-29T07:25:45;4.00;99.90
10873;DHT22;34586;53.616;10.032;2023-01-29T07:28:11;3.90;99.90
10873;DHT22;34586;53.616;10.032;2023-01-29T07:30:36;3.90;99.90
10873;DHT22;34586;53.616;10.032;2023-01-29T07:33:03;3.90;99.90
10873;DHT22;34586;53.616;10.032;2023-01-29T07:35:30;4.00;99.90
10873;DHT22;34586;53.616;10.032;2023-01-29T07:37:56;4.00;99.90
10873;DHT22;34586;53.616;10.032;2023-01-29T07:40:22;4.00;99.90
10873;DHT22;34586;53.616;10.032;2023-01-29T07:42:47;3.90;99.90
10873;DHT22;34586;53.616;10.032;2023-01-29T07:45:13;3.90;99.90
10873;DHT22;34586;53.616;10.032;2023-01-29T07:47:39;3.80;99.90
10873;DHT22;34586;53.616;10.032;2023-01-29T07:50:05;3.80;99.90
10873;DHT22;34586;53.616;10.032;2023-01-29T07:52:32;3.70;99.90
10873;DHT22;34586;53.616;10.032;2023-01-29T07:54:58;3.70;99.90
10873;DHT22;34586;53.616;10.032;2023-01-29T07:57:24;3.70;99.90
10873;DHT22;34586;53.616;10.032;2023-01-29T07:59:50;3.60;99.90
10873;DHT22;34586;53.616;10.032;2023-01-29T08:02:15;3.60;99.90
10873;DHT22;34586;53.616;10.032;2023-01-29T08:04:41;3.70;99.90
10873;DHT22;34586;53.616;10.032;2023-01-29T08:07:07;3.70;99.90
10873;DHT22;34586;53.616;10.032;2023-01-29T08:09:34;3.80;99.90
10873;DHT22;34586;53.616;10.032;2023-01-29T08:12:00;3.70;99.90
10873;DHT22;34586;53.616;10.032;2023-01-29T08:14:25;3.80;99.90
10873;DHT22;34586;53.616;10.032;2023-01-29T08:16:51;3.90;99.90
10873;DHT22;34586;53.616;10.032;2023-01-29T08:19:17;5.20;99.90
10873;DHT22;34586;53.616;10.032;2023-01-29T08:21:42;3.90;99.90
10873;DHT22;34586;53.616;10.032;2023-01-29T08:24:08;3.90;99.90
10873;DHT22;34586;53.616;10.032;2023-01-29T08:26:34;4.00;99.90
10873;DHT22;34586;53.616;10.032;2023-01-29T08:28:59;3.90;99.90
10873;DHT22;34586;53.616;10.032;2023-01-29T08:31:25;4.00;99.90
10873;DHT22;34586;53.616;10.032;2023-01-29T08:33:52;4.10;99.90
10873;DHT22;34586;53.616;10.032;2023-01-29T08:36:19;4.10;99.90
10873;DHT22;34586;53.616;10.032;2023-01-29T08:38:45;4.00;99.90
10873;DHT22;34586;53.616;10.032;2023-01-29T08:41:10;4.00;99.90
10873;DHT22;34586;53.616;10.032;2023-01-29T08:43:36;4.10;99.90
10873;DHT22;34586;53.616;10.032;2023-01-29T08:46:06;4.10;99.90
10873;DHT22;34586;53.616;10.032;2023-01-29T08:48:32;4.10;99.90
10873;DHT22;34586;53.616;10.032;2023-01-29T08:50:59;4.00;99.90
10873;DHT22;34586;53.616;10.032;2023-01-29T08:53:25;4.10;99.90
10873;DHT22;34586;53.616;10.032;2023-01-29T08:55:51;4.10;99.90
10873;DHT22;34586;53.616;10.032;2023-01-29T08:58:17;4.10;99.90
10873;DHT22;34586;53.616;10.032;2023-01-29T09:00:43;4.10;99.90
10873;DHT22;34586;53.616;10.032;2023-01-29T09:03:09;4.10;99.90
10873;DHT22;34586;53.616;10.032;2023-01-29T09:05:38;4.20;99.90
10873;DHT22;34586;53.616;10.032;2023-01-29T09:08:08;4.20;99.90
10873;DHT22;34586;53.616;10.032;2023-01-29T09:10:34;4.30;99.90
10873;DHT22;34586;53.616;10.032;2023-01-29T09:13:00;4.30;99.90
10873;DHT22;34586;53.616;10.032;2023-01-29T09:15:26;4.30;99.90
10873;DHT22;34586;53.616;10.032;2023-01-29T09:17:52;4.30;99.90
10873;DHT22;34586;53.616;10.032;2023-01-29T09:20:18;4.20;99.90
10873;DHT22;34586;53.616;10.032;2023-01-29T09:22:44;4.30;99.90
10873;DHT22;34586;53.616;10.032;2023-01-29T09:25:10;4.30;99.90
10873;DHT22;34586;53.616;10.032;2023-01-29T09:27:39;4.30;99.90
10873;DHT22;34586;53.616;10.032;2023-01-29T09:30:06;4.30;99.90
10873;DHT22;34586;53.616;10.032;2023-01-29T09:32:33;4.30;99.90
10873;DHT22;34586;53.616;10.032;2023-01-29T09:34:58;4.30;99.90
10873;DHT22;34586;53.616;10.032;2023-01-29T09:37:24;4.70;99.90
10873;DHT22;34586;53.616;10.032;2023-01-29T09:39:50;4.40;99.90
10873;DHT22;34586;53.616;10.032;2023-01-29T09:45:17;4.40;99.90
10873;DHT22;34586;53.616;10.032;2023-01-29T09:47:45;4.50;99.90
10873;DHT22;34586;53.616;10.032;2023-01-29T09:50:35;4.40;99.90
10873;DHT22;34586;53.616;10.032;2023-01-29T09:56:08;4.50;99.90
10873;DHT22;34586;53.616;10.032;2023-01-29T09:58:40;4.50;99.90
10873;DHT22;34586;53.616;10.032;2023-01-29T10:04:00;4.50;99.90
10873;DHT22;34586;53.616;10.032;2023-01-29T10:09:40;4.60;99.90
10873;DHT22;34586;53.616;10.032;2023-01-29T10:15:17;4.50;99.90
10873;DHT22;34586;53.616;10.032;2023-01-29T10:23:33;4.50;99.90
10873;DHT22;34586;53.616;10.032;2023-01-29T10:26:01;4.50;99.90
10873;DHT22;34586;53.616;10.032;2023-01-29T10:28:38;4.50;99.90
10873;DHT22;34586;53.616;10.032;2023-01-29T10:31:10;4.50;99.90
10873;DHT22;34586;53.616;10.032;2023-01-29T10:33:41;4.50;99.90
10873;DHT22;34586;53.616;10.032;2023-01-29T10:36:14;4.50;99.90
10873;DHT22;34586;53.616;10.032;2023-01-29T10:38:48;4.50;99.90
10873;DHT22;34586;53.616;10.032;2023-01-29T10:41:41;4.60;99.90
10873;DHT22;34586;53.616;10.032;2023-01-29T10:53:03;4.60;99.90
10873;DHT22;34586;53.616;10.032;2023-01-29T10:58:35;4.70;99.90
10873;DHT22;34586;53.616;10.032;2023-01-29T11:01:02;4.70;99.90
10873;DHT22;34586;53.616;10.032;2023-01-29T11:03:32;4.60;99.90
10873;DHT22;34586;53.616;10.032;2023-01-29T11:11:53;4.70;99.90
10873;DHT22;34586;53.616;10.032;2023-01-29T11:16:51;4.70;99.90
10873;DHT22;34586;53.616;10.032;2023-01-29T11:19:17;4.70;99.90
10873;DHT22;34586;53.616;10.032;2023-01-29T11:21:56;4.70;99.90
10873;DHT22;34586;53.616;10.032;2023-01-29T11:24:22;4.70;99.90
10873;DHT22;34586;53.616;10.032;2023-01-29T11:26:49;4.70;99.90
10873;DHT22;34586;53.616;10.032;2023-01-29T11:32:28;4.70;99.90
10873;DHT22;34586;53.616;10.032;2023-01-29T11:37:41;4.70;99.90
10873;DHT22;34586;53.616;10.032;2023-01-29T11:42:47;4.70;99.90
10873;DHT22;34586;53.616;10.032;2023-01-29T11:45:25;4.70;99.90
10873;DHT22;34586;53.616;10.032;2023-01-29T11:47:57;4.80;99.90
10873;DHT22;34586;53.616;10.032;2023-01-29T11:50:29;4.70;99.90
10873;DHT22;34586;53.616;10.032;2023-01-29T11:52:58;4.80;99.90
10873;DHT22;34586;53.616;10.032;2023-01-29T11:55:32;4.80;99.90
10873;DHT22;34586;53.616;10.032;2023-01-29T11:58:17;4.80;99.90
10873;DHT22;34586;53.616;10.032;2023-01-29T12:00:50;4.90;99.90
10873;DHT22;34586;53.616;10.032;2023-01-29T12:03:27;4.90;99.90
10873;DHT22;34586;53.616;10.032;2023-01-29T12:05:56;4.90;99.90
10873;DHT22;34586;53.616;10.032;2023-01-29T12:08:24;4.90;99.90
10873;DHT22;34586;53.616;10.032;2023-01-29T12:10:50;4.90;99.90
10873;DHT22;34586;53.616;10.032;2023-01-29T12:13:26;5.00;99.90
10873;DHT22;34586;53.616;10.032;2023-01-29T12:22:19;5.10;99.90
10873;DHT22;34586;53.616;10.032;2023-01-29T12:25:44;5.00;99.90
10873;DHT22;34586;53.616;10.032;2023-01-29T12:28:21;4.90;99.90
10873;DHT22;34586;53.616;10.032;2023-01-29T12:33:47;5.00;99.90
10873;DHT22;34586;53.616;10.032;2023-01-29T12:39:17;5.00;99.90
10873;DHT22;34586;53.616;10.032;2023-01-29T12:44:33;5.00;99.90
10873;DHT22;34586;53.616;10.032;2023-01-29T12:47:05;5.00;99.90
10873;DHT22;34586;53.616;10.032;2023-01-29T12:49:34;4.90;99.90
10873;DHT22;34586;53.616;10.032;2023-01-29T12:52:38;5.00;99.90
10873;DHT22;34586;53.616;10.032;2023-01-29T12:55:23;5.00;99.90
10873;DHT22;34586;53.616;10.032;2023-01-29T12:58:08;5.00;99.90
10873;DHT22;34586;53.616;10.032;2023-01-29T13:00:37;5.00;99.90
10873;DHT22;34586;53.616;10.032;2023-01-29T13:05:47;5.00;99.90
10873;DHT22;34586;53.616;10.032;2023-01-29T13:08:39;5.00;99.90
10873;DHT22;34586;53.616;10.032;2023-01-29T13:11:11;5.00;99.90
10873;DHT22;34586;53.616;10.032;2023-01-29T13:13:53;5.00;99.90
10873;DHT22;34586;53.616;10.032;2023-01-29T13:16:24;5.00;99.90
10873;DHT22;34586;53.616;10.032;2023-01-29T13:19:00;5.00;99.90
10873;DHT22;34586;53.616;10.032;2023-01-29T13:21:34;5.00;99.90
10873;DHT22;34586;53.616;10.032;2023-01-29T13:24:16;5.00;99.90
10873;DHT22;34586;53.616;10.032;2023-01-29T13:26:47;5.00;99.90
10873;DHT22;34586;53.616;10.032;2023-01-29T13:29:24;5.00;99.90
10873;DHT22;34586;53.616;10.032;2023-01-29T13:31:53;4.90;99.90
10873;DHT22;34586;53.616;10.032;2023-01-29T13:34:27;5.00;99.90
10873;DHT22;34586;53.616;10.032;2023-01-29T13:37:22;5.10;99.90
10873;DHT22;34586;53.616;10.032;2023-01-29T13:39:51;5.10;99.90
10873;DHT22;34586;53.616;10.032;2023-01-29T13:42:21;5.10;99.90
10873;DHT22;34586;53.616;10.032;2023-01-29T13:44:50;5.10;99.90
10873;DHT22;34586;53.616;10.032;2023-01-29T13:47:35;5.10;99.90
10873;DHT22;34586;53.616;10.032;2023-01-29T13:52:53;5.10;99.90
10873;DHT22;34586;53.616;10.032;2023-01-29T13:55:22;5.10;99.90
10873;DHT22;34586;53.616;10.032;2023-01-29T13:57:59;5.00;99.90
10873;DHT22;34586;53.616;10.032;2023-01-29T14:10:22;5.00;99.90
10873;DHT22;34586;53.616;10.032;2023-01-29T14:15:40;4.90;99.90
10873;DHT22;34586;53.616;10.032;2023-01-29T14:18:15;4.90;99.90
10873;DHT22;34586;53.616;10.032;2023-01-29T14:21:03;4.90;99.90
10873;DHT22;34586;53.616;10.032;2023-01-29T14:23:33;4.90;99.90
10873;DHT22;34586;53.616;10.032;2023-01-29T14:26:03;4.90;99.90
10873;DHT22;34586;53.616;10.032;2023-01-29T14:28:32;4.90;99.90
10873;DHT22;34586;53.616;10.032;2023-01-29T14:30:58;4.90;99.90
10873;DHT22;34586;53.616;10.032;2023-01-29T14:33:39;4.90;99.90
10873;DHT22;34586;53.616;10.032;2023-01-29T14:36:09;4.90;99.90
10873;DHT22;34586;53.616;10.032;2023-01-29T14:38:35;4.90;99.90
10873;DHT22;34586;53.616;10.032;2023-01-29T14:41:13;4.90;99.90
10873;DHT22;34586;53.616;10.032;2023-01-29T14:43:40;5.00;99.90
10873;DHT22;34586;53.616;10.032;2023-01-29T14:49:00;4.90;99.90
10873;DHT22;34586;53.616;10.032;2023-01-29T14:51:31;5.00;99.90
10873;DHT22;34586;53.616;10.032;2023-01-29T14:54:05;5.00;99.90
10873;DHT22;34586;53.616;10.032;2023-01-29T14:56:56;4.90;99.90
10873;DHT22;34586;53.616;10.032;2023-01-29T14:59:33;4.90;99.90
10873;DHT22;34586;53.616;10.032;2023-01-29T15:02:26;5.00;99.90
10873;DHT22;34586;53.616;10.032;2023-01-29T15:05:00;4.90;99.90
10873;DHT22;34586;53.616;10.032;2023-01-29T15:07:40;4.90;99.90
10873;DHT22;34586;53.616;10.032;2023-01-29T15:12:49;4.80;99.90
10873;DHT22;34586;53.616;10.032;2023-01-29T15:15:46;4.90;99.90
10873;DHT22;34586;53.616;10.032;2023-01-29T15:18:16;4.80;99.90
10873;DHT22;34586;53.616;10.032;2023-01-29T15:20:43;4.80;99.90
10873;DHT22;34586;53.616;10.032;2023-01-29T15:23:31;4.80;99.90
10873;DHT22;34586;53.616;10.032;2023-01-29T15:25:59;4.90;99.90
10873;DHT22;34586;53.616;10.032;2023-01-29T15:28:28;4.90;99.90
10873;DHT22;34586;53.616;10.032;2023-01-29T15:30:56;4.90;99.90
10873;DHT22;34586;53.616;10.032;2023-01-29T15:33:24;4.80;99.90
10873;DHT22;34586;53.616;10.032;2023-01-29T15:35:55;4.80;99.90
10873;DHT22;34586;53.616;10.032;2023-01-29T15:38:23;4.80;99.90
10873;DHT22;34586;53.616;10.032;2023-01-29T15:45:48;4.80;99.90
10873;DHT22;34586;53.616;10.032;2023-01-29T15:48:18;4.70;99.90
10873;DHT22;34586;53.616;10.032;2023-01-29T15:50:44;4.70;99.90
10873;DHT22;34586;53.616;10.032;2023-01-29T15:53:18;4.70;99.90
10873;DHT22;34586;53.616;10.032;2023-01-29T15:55:45;4.70;99.90
10873;DHT22;34586;53.616;10.032;2023-01-29T15:58:15;4.70;99.90
10873;DHT22;34586;53.616;10.032;2023-01-29T16:00:53;4.60;99.90
10873;DHT22;34586;53.616;10.032;2023-01-29T16:03:22;4.70;99.90
10873;DHT22;34586;53.616;10.032;2023-01-29T16:05:49;4.60;99.90
10873;DHT22;34586;53.616;10.032;2023-01-29T16:08:15;4.70;99.90
10873;DHT22;34586;53.616;10.032;2023-01-29T16:10:41;4.70;99.90
10873;DHT22;34586;53.616;10.032;2023-01-29T16:13:21;4.60;99.90
10873;DHT22;34586;53.616;10.032;2023-01-29T16:16:00;4.60;99.90
10873;DHT22;34586;53.616;10.032;2023-01-29T16:18:35;4.60;99.90
10873;DHT22;34586;53.616;10.032;2023-01-29T16:21:26;4.60;99.90
10873;DHT22;34586;53.616;10.032;2023-01-29T16:23:55;4.60;99.90
10873;DHT22;34586;53.616;10.032;2023-01-29T16:26:24;4.70;99.90
10873;DHT22;34586;53.616;10.032;2023-01-29T16:28:51;4.70;99.90
10873;DHT22;34586;53.616;10.032;2023-01-29T16:31:26;4.70;99.90
10873;DHT22;34586;53.616;10.032;2023-01-29T16:33:53;4.60;99.90
10873;DHT22;34586;53.616;10.032;2023-01-29T16:36:23;4.60;99.90
10873;DHT22;34586;53.616;10.032;2023-01-29T16:41:34;4.60;99.90
10873;DHT22;34586;53.616;10.032;2023-01-29T16:44:42;4.60;99.90
10873;DHT22;34586;53.616;10.032;2023-01-29T16:46:49;4.50;99.90
10873;DHT22;34586;53.616;10.032;2023-01-29T16:51:55;4.40;99.90
10873;DHT22;34586;53.616;10.032;2023-01-29T16:54:24;4.40;99.90
10873;DHT22;34586;53.616;10.032;2023-01-29T16:56:53;4.40;99.90
10873;DHT22;34586;53.616;10.032;2023-01-29T16:59:32;4.50;99.90
10873;DHT22;34586;53.616;10.032;2023-01-29T17:01:59;4.40;99.90
10873;DHT22;34586;53.616;10.032;2023-01-29T17:04:25;4.40;99.90
10873;DHT22;34586;53.616;10.032;2023-01-29T17:06:56;4.40;99.90
10873;DHT22;34586;53.616;10.032;2023-01-29T17:09:27;4.40;99.90
10873;DHT22;34586;53.616;10.032;2023-01-29T17:12:05;4.40;99.90
10873;DHT22;34586;53.616;10.032;2023-01-29T17:14:32;4.30;99.90
10873;DHT22;34586;53.616;10.032;2023-01-29T17:17:01;4.30;99.90
10873;DHT22;34586;53.616;10.032;2023-01-29T17:19:27;4.30;99.90
10873;DHT22;34586;53.616;10.032;2023-01-29T17:21:55;4.30;99.90
10873;DHT22;34586;53.616;10.032;2023-01-29T17:24:21;4.30;99.90
10873;DHT22;34586;53.616;10.032;2023-01-29T17:26:47;4.30;99.90
10873;DHT22;34586;53.616;10.032;2023-01-29T17:29:14;4.40;99.90
10873;DHT22;34586;53.616;10.032;2023-01-29T17:31:42;4.40;99.90
10873;DHT22;34586;53.616;10.032;2023-01-29T17:34:12;4.40;99.90
10873;DHT22;34586;53.616;10.032;2023-01-29T17:36:39;4.30;99.90
10873;DHT22;34586;53.616;10.032;2023-01-29T17:39:25;4.30;99.90
10873;DHT22;34586;53.616;10.032;2023-01-29T17:41:54;4.30;99.90
10873;DHT22;34586;53.616;10.032;2023-01-29T17:44:20;4.30;99.90
10873;DHT22;34586;53.616;10.032;2023-01-29T17:46:46;4.20;99.90
10873;DHT22;34586;53.616;10.032;2023-01-29T17:51:47;4.20;99.90
10873;DHT22;34586;53.616;10.032;2023-01-29T17:54:16;4.20;99.90
10873;DHT22;34586;53.616;10.032;2023-01-29T17:56:41;4.20;99.90
10873;DHT22;34586;53.616;10.032;2023-01-29T17:59:23;4.20;99.90
10873;DHT22;34586;53.616;10.032;2023-01-29T18:01:50;4.20;99.90
10873;DHT22;34586;53.616;10.032;2023-01-29T18:04:16;4.10;99.90
10873;DHT22;34586;53.616;10.032;2023-01-29T18:06:43;4.10;99.90
10873;DHT22;34586;53.616;10.032;2023-01-29T18:09:13;4.10;99.90
10873;DHT22;34586;53.616;10.032;2023-01-29T18:11:39;4.00;99.90
10873;DHT22;34586;53.616;10.032;2023-01-29T18:14:05;4.10;99.90